KBNA/BNA METAR and TAF weather

Enter ICAO airport designator
Station Type Date Time Source
KBNA METAR 2019/02/23 16:53 UTC NOAA

KBNA 231653Z 15015G21KT 7SM -RA BKN008 BKN060 OVC085 14/12 A2997 RMK AO2 RAE26B35 PRESFR SLP146 P0002 T01390122


Station Type Date Time Source
KBNA Decoded METAR 2019/02/23 16:53 UTC NOAA

NASHVILLE INTERNATIONAL AIRPORT, TN, United States (KBNA) 36-07N 086-41W 210M
Feb 23, 2019 - 11:53 AM EST / 2019.02.23 1653 UTC
Wind: from the SSE (150 degrees) at 17 MPH (15 KT) gusting to 24 MPH (21 KT):0
Visibility: 7 mile(s):0
Sky conditions: overcast
Weather: light rain
Precipitation last hour: 0.02 inches
Temperature: 57.0 F (13.9 C)
Dew Point: 54.0 F (12.2 C)
Relative Humidity: 89%
Pressure (altimeter): 29.97 in. Hg (1014 hPa)
Pressure tendency: falling rapidly
ob: KBNA 231653Z 15015G21KT 7SM -RA BKN008 BKN060 OVC085 14/12 A2997 RMK AO2 RAE26B35 PRESFR SLP146 P0002 T01390122
cycle: 17

Station Type Date Time Source
KBNA TAF 2019/02/23 17:42 UTC NOAA

TAF
AMD KBNA 231639Z 2317/2412 15008G18KT P6SM VCSH BKN008 BKN040 OVC080
TEMPO 2322/2402 VRB20G30KT 2SM TSRA BKN006 OVC035CB
FM240200 20016G26KT 5SM -SHRA BR VCTS BKN015 OVC050CB
FM240600 23017G26KT P6SM SKC


Example: see airport list